createdAt,value
2023-03-12T00:00:18.221Z,-1.27
2023-03-12T00:03:06.095Z,-1.25
2023-03-12T00:05:36.446Z,-1.23
2023-03-12T00:08:04.517Z,-1.21
2023-03-12T00:10:32.987Z,-1.19
2023-03-12T00:13:01.490Z,-1.17
2023-03-12T00:15:29.212Z,-1.15
2023-03-12T00:17:56.891Z,-1.11
2023-03-12T00:20:26.260Z,-1.08
2023-03-12T00:22:54.028Z,-1.06
2023-03-12T00:25:21.707Z,-1.04
2023-03-12T00:27:49.612Z,-1.04
2023-03-12T00:30:17.318Z,-1.02
2023-03-12T00:32:45.116Z,-1.02
2023-03-12T00:35:12.908Z,-1.02
2023-03-12T00:37:40.514Z,-1.02
2023-03-12T00:40:10.812Z,-1.01
2023-03-12T00:42:38.736Z,-1.02
2023-03-12T00:45:07.120Z,-1.04
2023-03-12T00:47:34.810Z,-1.06
2023-03-12T00:50:03.177Z,-1.07
2023-03-12T00:52:30.762Z,-1.07
2023-03-12T00:54:58.837Z,-1.05
2023-03-12T00:57:26.672Z,-1.03
2023-03-12T00:59:54.495Z,-1.02
2023-03-12T01:02:22.509Z,-1.00
2023-03-12T01:04:50.136Z,-0.98
2023-03-12T01:07:17.764Z,-0.94
2023-03-12T01:09:45.344Z,-0.88
2023-03-12T01:12:12.931Z,-0.84
2023-03-12T01:14:40.541Z,-0.83
2023-03-12T01:17:08.223Z,-0.82
2023-03-12T01:19:35.957Z,-0.79
2023-03-12T01:22:04.235Z,-0.78
2023-03-12T01:24:32.614Z,-0.76
2023-03-12T01:27:00.237Z,-0.73
2023-03-12T01:29:27.904Z,-0.70
2023-03-12T01:31:55.576Z,-0.69
2023-03-12T01:34:23.337Z,-0.68
2023-03-12T01:36:51.008Z,-0.67
2023-03-12T01:39:18.630Z,-0.64
2023-03-12T01:41:46.259Z,-0.64
2023-03-12T01:44:14.849Z,-0.64
2023-03-12T01:46:45.875Z,-0.63
2023-03-12T01:49:16.685Z,-0.61
2023-03-12T01:51:50.234Z,-0.59
2023-03-12T01:54:37.013Z,-0.59
2023-03-12T01:57:08.470Z,-0.60
2023-03-12T01:59:42.180Z,-0.60
2023-03-12T02:02:10.517Z,-0.60
2023-03-12T02:04:40.311Z,-0.59
2023-03-12T02:07:11.318Z,-0.59
2023-03-12T02:09:42.634Z,-0.57
2023-03-12T02:12:10.737Z,-0.55
2023-03-12T02:14:39.585Z,-0.55
2023-03-12T02:17:08.627Z,-0.57
2023-03-12T02:19:58.295Z,-0.56
2023-03-12T02:22:26.667Z,-0.54
2023-03-12T02:25:30.968Z,-0.53
2023-03-12T02:28:00.959Z,-0.54
2023-03-12T02:30:30.797Z,-0.54
2023-03-12T02:33:02.529Z,-0.55
2023-03-12T02:35:30.169Z,-0.55
2023-03-12T02:37:57.926Z,-0.54
2023-03-12T02:40:38.907Z,-0.56
2023-03-12T02:43:09.536Z,-0.55
2023-03-12T02:45:38.961Z,-0.58
2023-03-12T02:48:08.959Z,-0.61
2023-03-12T02:50:36.651Z,-0.64
2023-03-12T02:53:04.404Z,-0.63
2023-03-12T02:55:32.669Z,-0.63
2023-03-12T02:58:00.365Z,-0.65
2023-03-12T03:00:32.069Z,-0.68
2023-03-12T03:03:00.968Z,-0.68
2023-03-12T03:05:28.760Z,-0.67
2023-03-12T03:07:56.444Z,-0.68
2023-03-12T03:10:24.065Z,-0.71
2023-03-12T03:12:51.716Z,-0.70
2023-03-12T03:15:19.528Z,-0.69
2023-03-12T03:17:47.383Z,-0.68
2023-03-12T03:20:15.379Z,-0.67
2023-03-12T03:22:43.091Z,-0.68
2023-03-12T03:25:11.162Z,-0.68
2023-03-12T03:27:38.781Z,-0.67
2023-03-12T03:30:07.454Z,-0.66
2023-03-12T03:32:38.934Z,-0.63
2023-03-12T03:35:07.636Z,-0.63
2023-03-12T03:37:35.422Z,-0.62
2023-03-12T03:40:04.011Z,-0.59
2023-03-12T03:42:31.696Z,-0.59
2023-03-12T03:44:59.642Z,-0.58
2023-03-12T03:47:27.254Z,-0.57
2023-03-12T03:49:54.860Z,-0.57
2023-03-12T03:52:22.856Z,-0.55
2023-03-12T03:54:50.752Z,-0.55
2023-03-12T03:57:18.394Z,-0.55
2023-03-12T03:59:46.049Z,-0.56
2023-03-12T04:02:13.797Z,-0.58
2023-03-12T04:04:41.990Z,-0.60
2023-03-12T04:07:09.757Z,-0.63
2023-03-12T04:09:38.053Z,-0.63
2023-03-12T04:12:06.287Z,-0.62
2023-03-12T04:14:39.983Z,-0.61
2023-03-12T04:17:08.507Z,-0.60
2023-03-12T04:19:36.976Z,-0.58
2023-03-12T04:22:05.772Z,-0.55
2023-03-12T04:24:33.991Z,-0.56
2023-03-12T04:27:01.980Z,-0.56
2023-03-12T04:29:30.062Z,-0.55
2023-03-12T04:31:58.056Z,-0.55
2023-03-12T04:34:26.286Z,-0.58
2023-03-12T04:36:54.110Z,-0.62
2023-03-12T04:39:22.984Z,-0.69
2023-03-12T04:41:51.404Z,-0.74
2023-03-12T04:44:19.073Z,-0.78
2023-03-12T04:46:46.805Z,-0.80
2023-03-12T04:49:17.335Z,-0.83
2023-03-12T04:51:45.081Z,-0.84
2023-03-12T04:54:12.775Z,-0.86
2023-03-12T04:56:41.381Z,-0.90
2023-03-12T04:59:09.015Z,-0.91
2023-03-12T05:01:37.367Z,-0.91
2023-03-12T05:04:08.935Z,-0.91
2023-03-12T05:06:36.929Z,-0.92
2023-03-12T05:09:04.579Z,-0.95
2023-03-12T05:11:32.693Z,-0.99
2023-03-12T05:14:00.385Z,-1.02
2023-03-12T05:16:29.637Z,-1.06
2023-03-12T05:18:57.333Z,-1.10
2023-03-12T05:21:25.392Z,-1.13
2023-03-12T05:23:55.101Z,-1.15
2023-03-12T05:26:32.857Z,-1.17
2023-03-12T05:29:07.669Z,-1.15
2023-03-12T05:31:36.484Z,-1.14
2023-03-12T05:34:05.507Z,-1.12
2023-03-12T05:36:34.234Z,-1.12
2023-03-12T05:39:02.183Z,-1.12
2023-03-12T05:41:31.794Z,-1.15
2023-03-12T05:44:04.698Z,-1.19
2023-03-12T05:46:32.619Z,-1.25
2023-03-12T05:49:00.600Z,-1.32
2023-03-12T05:51:28.469Z,-1.36
2023-03-12T05:53:57.104Z,-1.38
2023-03-12T05:56:25.289Z,-1.39
2023-03-12T05:58:53.241Z,-1.40
2023-03-12T06:01:24.909Z,-1.39
2023-03-12T06:03:55.543Z,-1.34
2023-03-12T06:06:25.683Z,-1.32
2023-03-12T06:08:54.082Z,-1.31
2023-03-12T06:11:21.695Z,-1.31
2023-03-12T06:13:49.524Z,-1.32
2023-03-12T06:16:21.282Z,-1.33
2023-03-12T06:18:53.080Z,-1.34
2023-03-12T06:21:25.295Z,-1.34
2023-03-12T06:23:54.007Z,-1.33
2023-03-12T06:26:26.956Z,-1.34
2023-03-12T06:28:55.001Z,-1.33
2023-03-12T06:31:23.180Z,-1.32
2023-03-12T06:33:51.552Z,-1.30
2023-03-12T06:36:20.241Z,-1.28
2023-03-12T06:38:47.850Z,-1.26
2023-03-12T06:41:18.428Z,-1.25
2023-03-12T06:43:46.537Z,-1.21
2023-03-12T06:46:17.231Z,-1.21
2023-03-12T06:48:46.476Z,-1.19
2023-03-12T06:51:16.698Z,-1.17
2023-03-12T06:53:45.690Z,-1.17
2023-03-12T06:56:14.251Z,-1.16
2023-03-12T06:58:42.539Z,-1.14
2023-03-12T07:01:10.597Z,-1.11
2023-03-12T07:03:38.467Z,-1.07
2023-03-12T07:06:16.282Z,-1.00
2023-03-12T07:08:44.663Z,-0.90
2023-03-12T07:11:13.710Z,-0.80
2023-03-12T07:13:42.153Z,-0.74
2023-03-12T07:16:10.957Z,-0.73
2023-03-12T07:18:39.020Z,-0.76
2023-03-12T07:21:06.829Z,-0.78
2023-03-12T07:23:34.871Z,-0.82
2023-03-12T07:26:05.369Z,-0.84
2023-03-12T07:28:33.340Z,-0.82
2023-03-12T07:31:02.906Z,-0.81
2023-03-12T07:33:31.036Z,-0.79
2023-03-12T07:35:59.491Z,-0.76
2023-03-12T07:38:27.694Z,-0.73
2023-03-12T07:40:57.617Z,-0.71
2023-03-12T07:43:25.786Z,-0.69
2023-03-12T07:45:55.778Z,-0.66
2023-03-12T07:48:23.770Z,-0.61
2023-03-12T07:50:52.274Z,-0.52
2023-03-12T07:53:20.214Z,-0.43
2023-03-12T07:55:48.526Z,-0.30
2023-03-12T07:58:17.364Z,-0.18
2023-03-12T08:00:45.324Z,-0.13
2023-03-12T08:03:13.559Z,-0.11
2023-03-12T08:05:43.298Z,-0.08
2023-03-12T08:08:11.491Z,-0.04
2023-03-12T08:10:39.596Z,-0.02
2023-03-12T08:13:08.065Z,0.03
2023-03-12T08:15:35.792Z,0.05
2023-03-12T08:18:03.852Z,0.01
2023-03-12T08:20:32.000Z,-0.08
2023-03-12T08:22:59.654Z,-0.13
2023-03-12T08:25:28.536Z,-0.19
2023-03-12T08:27:56.193Z,-0.22
2023-03-12T08:30:24.255Z,-0.19
2023-03-12T08:32:52.242Z,-0.17
2023-03-12T08:35:20.057Z,-0.14
2023-03-12T08:37:48.206Z,-0.17
2023-03-12T08:40:16.436Z,-0.17
2023-03-12T08:42:45.634Z,-0.17
2023-03-12T08:45:14.354Z,-0.13
2023-03-12T08:47:43.441Z,-0.04
2023-03-12T08:50:13.190Z,0.04
2023-03-12T08:52:41.074Z,0.10
2023-03-12T08:55:10.672Z,0.06
2023-03-12T08:57:39.739Z,0.07
2023-03-12T09:00:11.409Z,0.13
2023-03-12T09:02:39.370Z,0.23
2023-03-12T09:05:07.650Z,0.34
2023-03-12T09:07:35.942Z,0.48
2023-03-12T09:10:04.999Z,0.52
2023-03-12T09:12:32.954Z,0.58
2023-03-12T09:15:05.105Z,0.67
2023-03-12T09:17:33.274Z,0.77
2023-03-12T09:20:01.022Z,0.90
2023-03-12T09:22:30.527Z,0.90
2023-03-12T09:24:58.456Z,0.81
2023-03-12T09:27:26.408Z,0.70
2023-03-12T09:30:00.491Z,0.65
2023-03-12T09:32:29.197Z,0.71
2023-03-12T09:34:57.265Z,0.84
2023-03-12T09:37:25.480Z,0.88
2023-03-12T09:39:53.734Z,0.89
2023-03-12T09:42:38.829Z,0.87
2023-03-12T09:45:10.975Z,0.80
2023-03-12T09:47:48.987Z,0.79
2023-03-12T09:50:31.662Z,0.92
2023-03-12T09:53:27.428Z,1.12
2023-03-12T09:55:57.844Z,1.21
2023-03-12T09:58:29.728Z,1.31
2023-03-12T10:01:26.720Z,1.46
2023-03-12T10:04:16.834Z,1.45
2023-03-12T10:07:05.713Z,1.47
2023-03-12T10:09:49.616Z,1.49
2023-03-12T10:12:29.143Z,1.54
2023-03-12T10:15:17.973Z,1.34
2023-03-12T10:18:00.631Z,1.21
2023-03-12T10:20:39.764Z,1.10
2023-03-12T10:23:38.286Z,1.03
2023-03-12T10:26:14.576Z,0.99
2023-03-12T10:29:10.693Z,1.08
2023-03-12T10:31:51.915Z,1.16
2023-03-12T10:34:39.195Z,1.36
2023-03-12T10:37:16.207Z,1.44
2023-03-12T10:39:44.915Z,1.53
2023-03-12T10:42:16.871Z,1.60
2023-03-12T10:44:52.157Z,1.68
2023-03-12T10:47:30.371Z,1.78
2023-03-12T10:50:16.640Z,1.80
2023-03-12T10:52:46.431Z,1.83
2023-03-12T10:55:24.244Z,1.79
2023-03-12T10:57:53.116Z,1.77
2023-03-12T11:00:25.260Z,1.79
2023-03-12T11:03:03.796Z,1.90
2023-03-12T11:05:35.840Z,2.00
2023-03-12T11:08:10.440Z,2.02
2023-03-12T11:10:41.515Z,1.97
2023-03-12T11:13:25.264Z,1.93
2023-03-12T11:15:54.617Z,1.96
2023-03-12T11:18:41.501Z,2.02
2023-03-12T11:21:09.419Z,2.02
2023-03-12T11:23:39.662Z,2.00
2023-03-12T11:26:24.817Z,2.01
2023-03-12T11:29:01.164Z,2.02
2023-03-12T11:31:37.898Z,1.99
2023-03-12T11:34:14.674Z,2.09
2023-03-12T11:37:14.302Z,2.24
2023-03-12T11:39:41.868Z,2.38
2023-03-12T11:42:51.944Z,2.44
2023-03-12T11:45:45.275Z,2.54
2023-03-12T11:48:23.695Z,2.51
2023-03-12T11:51:14.708Z,2.47
2023-03-12T11:53:58.218Z,2.58
2023-03-12T11:56:33.895Z,2.60
2023-03-12T11:59:22.184Z,2.68
2023-03-12T12:02:05.911Z,2.70
2023-03-12T12:05:04.827Z,2.68
2023-03-12T12:08:00.685Z,2.68
2023-03-12T12:10:36.069Z,2.81
2023-03-12T12:13:08.173Z,2.91
2023-03-12T12:16:06.825Z,2.85
2023-03-12T12:18:40.367Z,2.80
2023-03-12T12:21:23.988Z,2.80
2023-03-12T12:24:23.723Z,2.77
2023-03-12T12:27:07.980Z,2.69
2023-03-12T12:29:47.095Z,2.59
2023-03-12T12:32:32.313Z,2.63
2023-03-12T12:35:16.145Z,2.70
2023-03-12T12:37:57.958Z,2.73
2023-03-12T12:40:38.934Z,2.87
2023-03-12T12:43:23.820Z,2.99
2023-03-12T12:45:53.917Z,3.10
2023-03-12T12:48:43.462Z,3.16
2023-03-12T12:51:12.942Z,3.13
2023-03-12T12:53:49.424Z,3.14
2023-03-12T12:56:19.876Z,3.24
2023-03-12T12:59:07.602Z,3.30
2023-03-12T13:01:37.862Z,3.15
2023-03-12T13:04:11.999Z,3.00
2023-03-12T13:06:55.666Z,2.97
2023-03-12T13:09:40.631Z,3.11
2023-03-12T13:12:15.625Z,3.76
2023-03-12T13:14:45.086Z,4.74
2023-03-12T13:17:36.043Z,5.59
2023-03-12T13:20:10.942Z,6.57
2023-03-12T13:23:00.841Z,7.57
2023-03-12T13:25:47.770Z,7.58
2023-03-12T13:28:37.336Z,6.37
2023-03-12T13:31:20.983Z,5.68
2023-03-12T13:33:53.512Z,6.34
2023-03-12T13:36:24.477Z,7.52
2023-03-12T13:38:58.892Z,8.12
2023-03-12T13:41:35.555Z,7.34
2023-03-12T13:44:35.151Z,8.12
2023-03-12T13:47:11.701Z,7.97
2023-03-12T13:50:01.417Z,6.65
2023-03-12T13:52:33.677Z,5.58
2023-03-12T13:55:20.049Z,4.96
2023-03-12T13:58:06.079Z,4.33
2023-03-12T14:00:47.656Z,4.03
2023-03-12T14:03:23.439Z,4.14
2023-03-12T14:06:00.305Z,4.19
2023-03-12T14:08:41.071Z,4.08
2023-03-12T14:11:30.744Z,4.15
2023-03-12T14:14:30.391Z,5.36
2023-03-12T14:17:01.815Z,8.02
2023-03-12T14:19:31.307Z,8.82
2023-03-12T14:22:04.515Z,7.80
2023-03-12T14:24:39.650Z,7.84
2023-03-12T14:27:14.928Z,9.59
2023-03-12T14:29:48.652Z,11.00
2023-03-12T14:32:22.146Z,10.22
2023-03-12T14:35:02.770Z,9.70
2023-03-12T14:37:43.438Z,10.64
2023-03-12T14:40:50.492Z,11.57
2023-03-12T14:43:27.449Z,11.95
2023-03-12T14:46:04.764Z,10.94
2023-03-12T14:48:37.065Z,10.21
2023-03-12T14:51:07.193Z,8.99
2023-03-12T14:53:37.199Z,8.38
2023-03-12T14:56:20.796Z,7.66
2023-03-12T14:58:49.943Z,6.71
2023-03-12T15:01:23.481Z,5.93
2023-03-12T15:03:57.962Z,5.33
2023-03-12T15:06:31.856Z,4.78
2023-03-12T15:09:03.638Z,4.41
2023-03-12T15:11:34.598Z,4.06
2023-03-12T15:14:08.704Z,3.81
2023-03-12T15:16:36.781Z,3.55
2023-03-12T15:19:05.057Z,3.37
2023-03-12T15:21:35.556Z,3.25
2023-03-12T15:24:04.049Z,3.07
2023-03-12T15:26:37.899Z,2.88
2023-03-12T15:29:16.677Z,2.67
2023-03-12T15:31:49.656Z,2.47
2023-03-12T15:34:33.624Z,2.36
2023-03-12T15:37:18.806Z,2.22
2023-03-12T15:39:50.534Z,2.11
2023-03-12T15:42:23.463Z,1.98
2023-03-12T15:44:59.415Z,1.90
2023-03-12T15:47:30.481Z,1.80
2023-03-12T15:50:03.321Z,1.73
2023-03-12T15:52:34.192Z,1.67
2023-03-12T15:55:27.033Z,1.63
2023-03-12T15:57:56.654Z,1.59
2023-03-12T16:00:31.979Z,1.54
2023-03-12T16:03:03.999Z,1.49
2023-03-12T16:05:37.541Z,1.44
2023-03-12T16:08:41.421Z,1.38
2023-03-12T16:11:17.515Z,1.32
2023-03-12T16:13:48.710Z,1.28
2023-03-12T16:16:16.913Z,1.24
2023-03-12T16:18:44.630Z,1.20
2023-03-12T16:21:12.765Z,1.16
2023-03-12T16:23:40.384Z,1.10
2023-03-12T16:26:08.303Z,1.04
2023-03-12T16:28:36.743Z,0.99
2023-03-12T16:31:13.765Z,0.95
2023-03-12T16:33:42.173Z,0.92
2023-03-12T16:36:16.565Z,0.90
2023-03-12T16:38:45.701Z,0.88
2023-03-12T16:41:16.678Z,0.86
2023-03-12T16:43:50.315Z,0.84
2023-03-12T16:46:20.629Z,0.82
2023-03-12T16:48:52.931Z,0.81
2023-03-12T16:51:20.891Z,0.80
2023-03-12T16:53:55.836Z,0.78
2023-03-12T16:56:35.328Z,0.79
2023-03-12T16:59:15.896Z,0.79
2023-03-12T17:01:43.768Z,0.77
2023-03-12T17:04:11.704Z,0.78
2023-03-12T17:06:40.460Z,0.79
2023-03-12T17:09:08.483Z,0.80
2023-03-12T17:11:37.838Z,0.81
2023-03-12T17:14:21.974Z,0.82
2023-03-12T17:16:50.338Z,0.81
2023-03-12T17:19:17.976Z,0.81
2023-03-12T17:21:46.987Z,0.80
2023-03-12T17:24:14.865Z,0.79
2023-03-12T17:26:45.181Z,0.77
2023-03-12T17:29:12.804Z,0.75
2023-03-12T17:31:40.456Z,0.71
2023-03-12T17:34:08.819Z,0.69
2023-03-12T17:36:37.777Z,0.68
2023-03-12T17:39:05.566Z,0.66
2023-03-12T17:41:33.730Z,0.64
2023-03-12T17:44:03.493Z,0.63
2023-03-12T17:46:31.536Z,0.60
2023-03-12T17:48:59.658Z,0.55
2023-03-12T17:51:27.357Z,0.52
2023-03-12T17:53:55.013Z,0.51
2023-03-12T17:56:22.675Z,0.49
2023-03-12T17:58:50.656Z,0.45
2023-03-12T18:01:18.908Z,0.41
2023-03-12T18:03:47.623Z,0.40
2023-03-12T18:06:15.533Z,0.38
2023-03-12T18:08:43.496Z,0.39
2023-03-12T18:11:11.150Z,0.39
2023-03-12T18:13:40.813Z,0.40
2023-03-12T18:16:09.177Z,0.41
2023-03-12T18:18:36.952Z,0.38
2023-03-12T18:21:05.127Z,0.37
2023-03-12T18:23:32.856Z,0.34
2023-03-12T18:26:00.734Z,0.33
2023-03-12T18:28:28.652Z,0.31
2023-03-12T18:30:56.416Z,0.33
2023-03-12T18:33:24.151Z,0.36
2023-03-12T18:35:54.375Z,0.40
2023-03-12T18:38:22.679Z,0.45
2023-03-12T18:40:51.289Z,0.48
2023-03-12T18:43:20.812Z,0.53
2023-03-12T18:45:49.920Z,0.60
2023-03-12T18:48:17.970Z,0.64
2023-03-12T18:50:45.733Z,0.68
2023-03-12T18:53:13.594Z,0.71
2023-03-12T18:55:41.257Z,0.72
2023-03-12T18:58:09.534Z,0.71
2023-03-12T19:00:37.292Z,0.71
2023-03-12T19:03:04.998Z,0.69
2023-03-12T19:05:32.815Z,0.66
2023-03-12T19:08:00.475Z,0.64
2023-03-12T19:10:28.165Z,0.63
2023-03-12T19:12:55.755Z,0.63
2023-03-12T19:15:24.487Z,0.60
2023-03-12T19:17:53.899Z,0.59
2023-03-12T19:20:21.775Z,0.57
2023-03-12T19:22:49.834Z,0.52
2023-03-12T19:25:17.692Z,0.48
2023-03-12T19:27:45.318Z,0.45
2023-03-12T19:30:13.770Z,0.46
2023-03-12T19:32:44.295Z,0.44
2023-03-12T19:35:14.299Z,0.41
2023-03-12T19:37:42.333Z,0.39
2023-03-12T19:40:10.891Z,0.36
2023-03-12T19:42:38.808Z,0.32
2023-03-12T19:45:07.043Z,0.30
2023-03-12T19:47:34.813Z,0.31
2023-03-12T19:50:02.936Z,0.32
2023-03-12T19:52:30.577Z,0.33
2023-03-12T19:55:04.731Z,0.34
2023-03-12T19:57:34.293Z,0.36
2023-03-12T20:00:02.107Z,0.36
2023-03-12T20:02:32.266Z,0.34
2023-03-12T20:05:00.032Z,0.34
2023-03-12T20:07:27.650Z,0.35
2023-03-12T20:09:55.297Z,0.32
2023-03-12T20:12:23.326Z,0.29
2023-03-12T20:14:50.918Z,0.26
2023-03-12T20:17:18.812Z,0.24
2023-03-12T20:19:46.647Z,0.22
2023-03-12T20:22:14.285Z,0.20
2023-03-12T20:24:42.074Z,0.20
2023-03-12T20:27:09.694Z,0.20
2023-03-12T20:29:37.455Z,0.17
2023-03-12T20:32:05.186Z,0.16
2023-03-12T20:34:32.895Z,0.15
2023-03-12T20:37:00.575Z,0.13
2023-03-12T20:39:28.183Z,0.13
2023-03-12T20:41:55.877Z,0.11
2023-03-12T20:44:23.695Z,0.08
2023-03-12T20:46:51.343Z,0.09
2023-03-12T20:49:19.116Z,0.11
2023-03-12T20:51:46.996Z,0.12
2023-03-12T20:54:14.679Z,0.10
2023-03-12T20:56:44.676Z,0.10
2023-03-12T20:59:12.536Z,0.10
2023-03-12T21:01:40.274Z,0.10
2023-03-12T21:04:08.048Z,0.11
2023-03-12T21:06:35.839Z,0.13
2023-03-12T21:09:03.754Z,0.14
2023-03-12T21:11:31.455Z,0.13
2023-03-12T21:13:59.288Z,0.15
2023-03-12T21:16:27.117Z,0.17
2023-03-12T21:18:56.298Z,0.19
2023-03-12T21:21:24.301Z,0.20
2023-03-12T21:23:52.049Z,0.22
2023-03-12T21:26:19.852Z,0.23
2023-03-12T21:28:47.506Z,0.20
2023-03-12T21:31:16.802Z,0.17
2023-03-12T21:33:45.185Z,0.15
2023-03-12T21:36:14.469Z,0.13
2023-03-12T21:38:42.931Z,0.14
2023-03-12T21:41:16.337Z,0.17
2023-03-12T21:43:45.257Z,0.21
2023-03-12T21:46:15.595Z,0.24
2023-03-12T21:48:44.896Z,0.30
2023-03-12T21:51:14.823Z,0.33
2023-03-12T21:53:42.472Z,0.37
2023-03-12T21:56:10.639Z,0.43
2023-03-12T21:58:38.554Z,0.44
2023-03-12T22:01:07.888Z,0.42
2023-03-12T22:03:36.220Z,0.40
2023-03-12T22:06:05.408Z,0.39
2023-03-12T22:08:34.034Z,0.38
2023-03-12T22:11:02.427Z,0.36
2023-03-12T22:13:30.391Z,0.37
2023-03-12T22:16:03.813Z,0.36
2023-03-12T22:18:32.481Z,0.36
2023-03-12T22:21:03.240Z,0.36
2023-03-12T22:23:31.890Z,0.34
2023-03-12T22:26:05.022Z,0.32
2023-03-12T22:28:33.009Z,0.30
2023-03-12T22:31:03.278Z,0.30
2023-03-12T22:33:32.279Z,0.32
2023-03-12T22:35:59.985Z,0.35
2023-03-12T22:38:27.709Z,0.37
2023-03-12T22:40:55.956Z,0.39
2023-03-12T22:43:26.887Z,0.36
2023-03-12T22:45:54.581Z,0.34
2023-03-12T22:48:22.201Z,0.29
2023-03-12T22:50:54.183Z,0.26
2023-03-12T22:53:22.206Z,0.23
2023-03-12T22:56:07.262Z,0.20
2023-03-12T22:58:35.624Z,0.18
2023-03-12T23:01:03.252Z,0.18
2023-03-12T23:03:32.392Z,0.21
2023-03-12T23:06:00.791Z,0.20
2023-03-12T23:08:28.785Z,0.20
2023-03-12T23:10:59.167Z,0.21
2023-03-12T23:13:30.098Z,0.20
2023-03-12T23:16:19.524Z,0.17
2023-03-12T23:18:47.713Z,0.15
2023-03-12T23:21:18.498Z,0.14
2023-03-12T23:23:47.522Z,0.14
2023-03-12T23:26:18.327Z,0.14
2023-03-12T23:28:47.151Z,0.13
2023-03-12T23:31:16.381Z,0.12
2023-03-12T23:33:44.820Z,0.13
2023-03-12T23:36:18.832Z,0.15
2023-03-12T23:38:47.709Z,0.17
2023-03-12T23:41:23.465Z,0.19
2023-03-12T23:43:52.351Z,0.19
2023-03-12T23:46:20.656Z,0.18
2023-03-12T23:48:49.774Z,0.16
2023-03-12T23:51:23.627Z,0.14
2023-03-12T23:53:52.670Z,0.15
2023-03-12T23:56:23.246Z,0.13
2023-03-12T23:58:51.393Z,0.14
